Time;durP1;ratioP1;P1;durP2;ratioP2;P2;SDS_P1;SDS_P2;PMS_P1;PMS_P2;Temp;Humidity;BMP_temperature;BMP_pressure;BME280_temperature;BME280_humidity;BME280_pressure;Samples;Min_cycle;Max_cycle;Signal;HPM_P1;HPM_P2
2022/06/21 00:01:25;;;;;;;2.40;2.30;;;12.20;99.90;;;;;;5149016;28;20471;-47
2022/06/21 00:03:56;;;;;;;4.00;2.60;;;12.10;99.90;;;;;;5144868;28;20509;-47
2022/06/21 00:06:27;;;;;;;1.97;1.93;;;12.20;99.90;;;;;;5146993;28;20536;-46
2022/06/21 00:08:58;;;;;;;6.13;2.60;;;12.10;99.90;;;;;;5143169;28;20445;-45
2022/06/21 00:11:32;;;;;;;2.03;1.80;;;12.10;99.90;;;;;;5146367;28;20445;-44
2022/06/21 00:14:03;;;;;;;2.60;2.03;;;12.00;99.90;;;;;;5146568;28;20181;-45
2022/06/21 00:16:35;;;;;;;3.43;2.27;;;12.00;99.90;;;;;;5150239;28;20508;-47
2022/06/21 00:19:06;;;;;;;4.67;2.70;;;12.10;99.90;;;;;;5148416;28;20216;-48
2022/06/21 00:21:39;;;;;;;3.30;2.23;;;12.10;99.90;;;;;;5148988;28;20464;-46
2022/06/21 00:24:10;;;;;;;5.70;3.00;;;12.10;99.90;;;;;;5143575;28;20495;-46
2022/06/21 00:26:41;;;;;;;5.60;2.10;;;12.10;99.90;;;;;;5146054;28;20739;-46
2022/06/21 00:29:12;;;;;;;3.90;2.47;;;12.10;99.90;;;;;;5143685;28;20448;-46
2022/06/21 00:31:49;;;;;;;4.20;3.10;;;12.10;99.90;;;;;;5141001;28;20541;-46
2022/06/21 00:34:21;;;;;;;4.10;2.87;;;12.20;99.90;;;;;;5144766;28;20487;-46
2022/06/21 00:36:52;;;;;;;5.10;2.47;;;12.20;99.90;;;;;;5143910;28;20488;-46
2022/06/21 00:39:22;;;;;;;3.57;2.50;;;12.20;99.90;;;;;;5145064;28;20476;-46
2022/06/21 00:41:57;;;;;;;6.00;2.70;;;12.20;99.90;;;;;;5122170;28;20747;-46
2022/06/21 00:44:39;;;;;;;2.80;2.70;;;12.10;99.90;;;;;;5138193;28;20200;-46
2022/06/21 00:47:15;;;;;;;3.17;2.80;;;12.10;99.90;;;;;;5154206;28;20486;-46
2022/06/21 00:50:17;;;;;;;9.83;3.00;;;12.10;99.90;;;;;;5150652;28;20803;-47
2022/06/21 00:53:00;;;;;;;2.53;2.30;;;12.00;99.90;;;;;;5120027;28;20502;-46
2022/06/21 00:56:07;;;;;;;3.70;2.93;;;12.00;99.90;;;;;;5137163;28;20428;-46
2022/06/21 00:58:38;;;;;;;2.90;2.37;;;11.90;99.90;;;;;;5144270;28;20448;-46
2022/06/21 01:01:32;;;;;;;3.17;2.97;;;11.90;99.90;;;;;;5143128;28;20952;-46
2022/06/21 01:04:24;;;;;;;2.53;2.40;;;11.90;99.90;;;;;;5139681;28;20185;-46
2022/06/21 01:06:59;;;;;;;3.97;3.10;;;11.80;99.90;;;;;;5138894;28;20543;-46
2022/06/21 01:09:52;;;;;;;4.07;2.50;;;11.90;99.90;;;;;;5144818;28;20437;-46
2022/06/21 01:12:34;;;;;;;3.90;3.00;;;11.90;99.90;;;;;;5142406;28;21063;-46
2022/06/21 01:15:33;;;;;;;4.67;2.93;;;11.90;99.90;;;;;;5145949;28;20440;-49
2022/06/21 01:18:05;;;;;;;3.60;3.10;;;11.90;99.90;;;;;;5145437;28;20457;-46
2022/06/21 01:20:43;;;;;;;7.10;3.37;;;11.80;99.90;;;;;;5142639;28;20444;-46
2022/06/21 01:23:38;;;;;;;4.33;3.00;;;11.80;99.90;;;;;;5130520;28;20437;-46
2022/06/21 01:26:31;;;;;;;4.57;3.50;;;11.80;99.90;;;;;;5139721;28;21360;-46
2022/06/21 01:29:05;;;;;;;4.23;3.77;;;11.80;99.90;;;;;;5134294;28;20540;-46
2022/06/21 01:31:37;;;;;;;4.80;3.00;;;11.80;99.90;;;;;;5144821;28;20483;-48
2022/06/21 01:34:17;;;;;;;3.13;2.90;;;11.80;99.90;;;;;;5145669;28;20533;-46
2022/06/21 01:36:53;;;;;;;7.40;3.10;;;11.80;99.90;;;;;;5143897;28;20456;-46
2022/06/21 01:39:52;;;;;;;3.80;2.90;;;11.80;99.90;;;;;;5144054;28;20884;-46
2022/06/21 01:42:32;;;;;;;8.70;3.37;;;11.80;99.90;;;;;;5143527;28;20436;-46
2022/06/21 01:45:10;;;;;;;11.27;3.00;;;11.80;99.90;;;;;;5144319;28;20440;-46
2022/06/21 01:47:51;;;;;;;4.30;3.13;;;11.80;99.90;;;;;;5143965;28;23147;-47
2022/06/21 01:50:22;;;;;;;6.30;3.40;;;11.90;99.90;;;;;;5140725;28;20460;-47
2022/06/21 01:52:55;;;;;;;6.00;3.43;;;11.90;99.90;;;;;;5134205;28;20444;-47
2022/06/21 01:55:28;;;;;;;3.13;2.80;;;12.00;99.90;;;;;;5138848;28;20436;-47
2022/06/21 01:58:01;;;;;;;18.20;5.13;;;12.00;99.90;;;;;;5137769;28;20497;-46
2022/06/21 02:00:35;;;;;;;3.80;3.00;;;12.00;99.90;;;;;;5142032;28;20437;-46
2022/06/21 02:03:12;;;;;;;4.60;3.30;;;12.00;99.90;;;;;;5144530;28;20440;-46
2022/06/21 02:05:51;;;;;;;6.53;3.47;;;12.00;99.90;;;;;;5142034;28;20468;-46
2022/06/21 02:08:40;;;;;;;3.10;2.83;;;12.00;99.90;;;;;;5135665;28;21025;-46
2022/06/21 02:11:18;;;;;;;6.30;3.30;;;12.00;99.90;;;;;;5141489;28;21748;-46
2022/06/21 02:16:49;;;;;;;3.60;3.27;;;11.90;99.90;;;;;;5141188;28;20488;-47
2022/06/21 02:19:45;;;;;;;3.50;3.10;;;11.80;99.90;;;;;;5138170;28;20472;-46
2022/06/21 02:22:19;;;;;;;5.83;3.10;;;11.80;99.90;;;;;;5142953;28;20488;-46
2022/06/21 02:24:51;;;;;;;4.00;3.10;;;11.80;99.90;;;;;;5156348;28;20802;-46
2022/06/21 02:27:25;;;;;;;3.53;3.17;;;11.70;99.90;;;;;;5140955;28;20476;-47
2022/06/21 02:29:59;;;;;;;4.67;3.80;;;11.70;99.90;;;;;;5140447;28;20496;-46
2022/06/21 02:32:39;;;;;;;8.73;3.40;;;11.60;99.90;;;;;;5157325;28;20491;-46
2022/06/21 02:35:36;;;;;;;2.83;2.63;;;11.70;99.90;;;;;;5141052;28;20516;-46
2022/06/21 02:38:16;;;;;;;6.53;4.00;;;11.70;99.90;;;;;;5138019;28;20502;-46
2022/06/21 02:40:56;;;;;;;9.33;2.73;;;11.60;99.90;;;;;;5143755;28;20460;-46
2022/06/21 02:43:33;;;;;;;7.10;3.40;;;11.60;99.90;;;;;;5138477;28;20484;-45
2022/06/21 02:46:08;;;;;;;8.43;3.37;;;11.60;99.90;;;;;;5141249;28;20534;-45
2022/06/21 02:48:52;;;;;;;8.73;3.33;;;11.60;99.90;;;;;;5141587;28;20464;-46
2022/06/21 02:51:31;;;;;;;6.10;3.60;;;11.50;99.90;;;;;;5134002;28;20504;-46
2022/06/21 02:54:12;;;;;;;3.60;3.07;;;11.50;99.90;;;;;;5125080;28;21009;-45
2022/06/21 02:56:48;;;;;;;5.27;3.57;;;11.50;99.90;;;;;;5141407;28;20448;-46
2022/06/21 02:59:19;;;;;;;11.57;3.93;;;11.50;99.90;;;;;;5138104;28;20444;-46
2022/06/21 03:01:56;;;;;;;3.77;3.40;;;11.50;99.90;;;;;;5132997;28;20441;-46
2022/06/21 03:04:34;;;;;;;3.20;3.10;;;11.50;99.90;;;;;;5148707;28;20526;-46
2022/06/21 03:07:06;;;;;;;7.13;3.13;;;11.50;99.90;;;;;;5138704;28;20894;-46
2022/06/21 03:09:36;;;;;;;3.57;3.37;;;11.50;99.90;;;;;;5140097;28;20437;-47
2022/06/21 03:12:08;;;;;;;2.67;2.47;;;11.50;99.90;;;;;;5138763;28;20436;-46
2022/06/21 03:14:38;;;;;;;6.03;3.90;;;11.50;99.90;;;;;;5137852;28;20666;-45
2022/06/21 03:17:09;;;;;;;7.53;3.47;;;11.50;99.90;;;;;;5156056;28;20527;-46
2022/06/21 03:19:49;;;;;;;3.40;3.20;;;11.50;99.90;;;;;;5140736;28;20185;-46
2022/06/21 03:22:29;;;;;;;3.63;3.00;;;11.50;99.90;;;;;;5157315;28;20201;-46
2022/06/21 03:25:05;;;;;;;4.93;3.50;;;11.50;99.90;;;;;;5142446;28;20432;-46
2022/06/21 03:27:53;;;;;;;6.83;3.60;;;11.50;99.90;;;;;;5127779;28;20976;-47
2022/06/21 03:30:34;;;;;;;6.17;3.40;;;11.50;99.90;;;;;;5142785;28;20634;-47
2022/06/21 03:33:05;;;;;;;4.77;4.27;;;11.50;99.90;;;;;;5160023;28;20528;-46
2022/06/21 03:35:36;;;;;;;8.80;3.70;;;11.50;99.90;;;;;;5145671;28;20449;-46
2022/06/21 03:38:07;;;;;;;5.63;3.00;;;11.60;99.90;;;;;;5144323;28;20476;-47
2022/06/21 03:43:36;;;;;;;5.30;3.80;;;11.50;99.90;;;;;;5142225;28;20219;-46
2022/06/21 03:46:13;;;;;;;8.33;3.70;;;11.60;99.90;;;;;;5159877;28;20468;-47
2022/06/21 03:48:55;;;;;;;4.47;3.23;;;11.70;99.90;;;;;;5145227;28;20467;-46
2022/06/21 03:51:33;;;;;;;4.20;3.13;;;11.70;99.90;;;;;;5136024;28;20441;-46
2022/06/21 03:54:10;;;;;;;3.60;3.27;;;11.80;99.90;;;;;;5137902;28;20437;-47
2022/06/21 03:56:56;;;;;;;3.73;3.40;;;11.90;99.90;;;;;;5134934;28;20467;-46
2022/06/21 03:59:43;;;;;;;4.00;3.20;;;12.00;99.90;;;;;;5159104;28;20441;-47
2022/06/21 04:02:35;;;;;;;14.00;3.07;;;12.10;99.90;;;;;;5138175;28;20436;-47
2022/06/21 04:05:13;;;;;;;5.90;3.20;;;12.20;99.90;;;;;;5141733;28;20437;-47
2022/06/21 04:07:53;;;;;;;9.70;3.73;;;12.20;99.90;;;;;;5144086;28;20527;-47
2022/06/21 04:10:45;;;;;;;3.67;3.37;;;12.20;99.90;;;;;;5141361;28;20865;-47
2022/06/21 04:13:23;;;;;;;8.97;3.60;;;12.20;99.90;;;;;;5141755;28;20433;-47
2022/06/21 04:16:19;;;;;;;11.93;3.70;;;12.30;99.90;;;;;;5138197;28;20794;-46
2022/06/21 04:18:57;;;;;;;2.83;2.63;;;12.30;99.90;;;;;;5138151;28;20437;-46
2022/06/21 04:21:42;;;;;;;4.37;3.37;;;12.40;99.90;;;;;;5134557;28;20471;-46
2022/06/21 04:24:26;;;;;;;14.10;3.57;;;12.60;99.90;;;;;;5132962;28;20542;-46
2022/06/21 04:27:38;;;;;;;7.30;2.93;;;12.80;99.90;;;;;;5136380;28;20538;-46
2022/06/21 04:30:22;;;;;;;7.03;3.33;;;13.00;99.90;;;;;;5149710;28;20473;-46
2022/06/21 04:33:01;;;;;;;4.77;3.27;;;13.30;99.90;;;;;;5136936;28;20437;-47
2022/06/21 04:35:36;;;;;;;10.27;3.93;;;13.50;99.90;;;;;;5139823;28;20964;-46
2022/06/21 04:38:15;;;;;;;5.33;3.20;;;13.50;99.90;;;;;;5142356;28;20446;-47
2022/06/21 04:40:52;;;;;;;8.80;3.10;;;13.50;99.90;;;;;;5142028;28;20445;-46
2022/06/21 04:43:39;;;;;;;5.37;2.93;;;13.40;99.90;;;;;;5141204;28;20470;-47
2022/06/21 04:46:13;;;;;;;11.93;3.90;;;13.30;99.90;;;;;;5141809;28;20548;-46
2022/06/21 04:48:58;;;;;;;5.03;2.90;;;13.20;99.90;;;;;;5142932;28;20433;-46
2022/06/21 04:51:50;;;;;;;11.33;4.00;;;13.20;99.90;;;;;;5142154;28;20449;-47
2022/06/21 04:54:26;;;;;;;3.97;3.60;;;13.10;99.90;;;;;;5145321;28;20855;-47
2022/06/21 04:57:25;;;;;;;4.40;3.40;;;13.10;99.90;;;;;;5143400;28;21071;-46
2022/06/21 05:00:00;;;;;;;4.27;3.60;;;13.30;99.90;;;;;;5136628;28;20433;-46
2022/06/21 05:02:38;;;;;;;9.57;4.03;;;13.40;99.90;;;;;;5135527;28;20452;-47
2022/06/21 05:05:18;;;;;;;8.43;3.20;;;13.50;99.90;;;;;;5142205;28;20504;-47
2022/06/21 05:07:54;;;;;;;5.13;3.53;;;13.60;99.90;;;;;;5142158;28;20550;-46
2022/06/21 05:10:33;;;;;;;5.80;3.50;;;13.90;99.90;;;;;;5140034;28;20452;-46
2022/06/21 05:13:12;;;;;;;4.07;3.63;;;13.90;99.90;;;;;;5142860;28;20436;-46
2022/06/21 05:15:43;;;;;;;5.63;4.13;;;13.80;99.90;;;;;;5139102;28;20452;-46
2022/06/21 05:18:26;;;;;;;11.57;3.23;;;13.90;99.90;;;;;;5141021;28;20465;-47
2022/06/21 05:21:10;;;;;;;7.37;3.40;;;14.20;99.90;;;;;;5143749;28;20499;-46
2022/06/21 05:23:41;;;;;;;7.30;3.17;;;14.80;99.90;;;;;;5142491;28;20528;-46
2022/06/21 05:26:20;;;;;;;8.87;2.83;;;15.70;99.90;;;;;;5144332;28;20826;-46
2022/06/21 05:28:57;;;;;;;3.73;3.27;;;15.60;99.90;;;;;;5139886;28;20456;-47
2022/06/21 05:31:37;;;;;;;8.97;3.20;;;15.10;99.90;;;;;;5143231;28;20796;-46
2022/06/21 05:34:42;;;;;;;6.50;3.13;;;15.70;99.90;;;;;;5144138;28;20956;-47
2022/06/21 05:37:24;;;;;;;11.23;3.27;;;16.40;99.90;;;;;;5141641;28;20470;-47
2022/06/21 05:39:56;;;;;;;5.17;2.80;;;17.40;99.90;;;;;;5145854;28;21008;-47
2022/06/21 05:42:28;;;;;;;7.40;3.00;;;18.10;99.90;;;;;;5141472;28;20444;-47
2022/06/21 05:45:12;;;;;;;3.33;2.00;;;17.70;99.90;;;;;;5142836;28;20770;-47
2022/06/21 05:47:48;;;;;;;6.80;2.90;;;18.30;99.90;;;;;;5141969;28;20464;-47
2022/06/21 05:50:24;;;;;;;2.93;2.27;;;19.60;99.90;;;;;;5145592;28;21011;-47
2022/06/21 05:53:04;;;;;;;4.97;2.40;;;20.50;94.40;;;;;;5135096;28;20472;-46
2022/06/21 05:55:39;;;;;;;4.87;2.30;;;20.80;90.80;;;;;;5135164;28;20958;-46
2022/06/21 05:58:25;;;;;;;5.43;2.40;;;21.60;81.60;;;;;;5131216;28;21007;-47
2022/06/21 06:01:15;;;;;;;8.80;2.50;;;21.60;75.50;;;;;;5148781;28;20422;-47
2022/06/21 06:04:27;;;;;;;6.83;2.47;;;21.90;71.90;;;;;;5136206;28;20437;-47
2022/06/21 06:07:00;;;;;;;2.23;1.90;;;23.80;65.60;;;;;;5141867;28;20957;-47
2022/06/21 06:09:46;;;;;;;4.17;1.90;;;24.40;57.00;;;;;;5156336;28;20476;-47
2022/06/21 06:12:26;;;;;;;2.03;1.57;;;23.60;56.50;;;;;;5123210;28;20433;-46
2022/06/21 06:15:08;;;;;;;2.60;1.90;;;22.80;58.60;;;;;;5146780;28;20437;-46
2022/06/21 06:17:50;;;;;;;9.00;2.30;;;22.10;60.10;;;;;;5155600;28;20454;-46
2022/06/21 06:20:40;;;;;;;5.53;1.80;;;22.90;58.50;;;;;;5140726;28;20452;-46
2022/06/21 06:23:38;;;;;;;4.10;1.43;;;24.30;55.70;;;;;;5141697;28;20452;-46
2022/06/21 06:26:21;;;;;;;5.47;2.00;;;25.30;49.70;;;;;;5128686;28;20480;-47
2022/06/21 06:29:14;;;;;;;1.57;1.50;;;26.10;48.70;;;;;;5183266;22;20495;-51
2022/06/21 06:31:52;;;;;;;5.30;2.40;;;26.30;48.00;;;;;;5177642;28;20440;-49
2022/06/21 06:34:27;;;;;;;3.27;1.50;;;26.30;46.10;;;;;;5176368;28;20462;-50
2022/06/21 06:37:08;;;;;;;3.20;1.33;;;26.70;45.80;;;;;;5176067;28;20475;-49
2022/06/21 06:39:39;;;;;;;2.33;1.60;;;25.70;46.70;;;;;;5160906;28;20578;-52
2022/06/21 06:42:19;;;;;;;5.93;1.53;;;26.10;46.10;;;;;;5165875;28;21010;-51
2022/06/21 06:45:13;;;;;;;6.70;1.97;;;26.50;45.30;;;;;;5156457;28;20279;-48
2022/06/21 06:47:48;;;;;;;11.43;1.77;;;28.20;43.10;;;;;;5160282;28;20488;-51
2022/06/21 06:50:33;;;;;;;3.90;2.43;;;28.50;42.20;;;;;;5161913;28;20446;-49
2022/06/21 06:53:25;;;;;;;8.37;2.40;;;29.20;40.50;;;;;;5155446;28;20955;-48
2022/06/21 06:56:03;;;;;;;7.53;1.63;;;30.00;39.10;;;;;;5160277;28;20571;-48
2022/06/21 06:58:43;;;;;;;4.20;1.93;;;30.90;37.00;;;;;;5162455;28;20460;-49
2022/06/21 07:01:24;;;;;;;6.43;2.03;;;31.80;35.10;;;;;;5163466;28;20525;-50
2022/06/21 07:04:02;;;;;;;1.70;1.40;;;31.70;34.10;;;;;;5156470;28;20515;-50
2022/06/21 07:06:53;;;;;;;8.03;2.20;;;31.20;33.30;;;;;;5158636;28;20471;-50
2022/06/21 07:09:35;;;;;;;1.90;1.50;;;30.50;34.70;;;;;;5154657;28;20436;-50
2022/06/21 07:12:17;;;;;;;3.20;2.43;;;29.20;35.40;;;;;;5154751;28;20433;-52
2022/06/21 07:14:50;;;;;;;5.47;1.80;;;29.40;37.60;;;;;;5162422;28;20439;-52
2022/06/21 07:17:45;;;;;;;4.10;2.00;;;29.90;36.10;;;;;;5165196;28;20495;-49
2022/06/21 07:20:21;;;;;;;1.70;1.60;;;30.90;34.60;;;;;;5170113;28;20444;-49
2022/06/21 07:22:55;;;;;;;9.73;2.10;;;31.70;34.20;;;;;;5152034;28;20913;-48
2022/06/21 07:25:40;;;;;;;3.23;1.70;;;32.40;33.10;;;;;;5165341;28;20426;-50
2022/06/21 07:28:48;;;;;;;1.63;1.53;;;33.10;31.80;;;;;;5172689;28;20471;-50
2022/06/21 07:31:36;;;;;;;4.33;1.23;;;33.10;30.20;;;;;;5168266;28;20439;-52
2022/06/21 07:34:25;;;;;;;7.97;1.83;;;32.30;30.80;;;;;;5163883;28;20203;-50
2022/06/21 07:37:01;;;;;;;3.90;1.57;;;31.20;31.30;;;;;;5168377;28;20554;-49
2022/06/21 07:39:37;;;;;;;9.83;2.20;;;32.10;31.30;;;;;;5162029;28;20432;-50
2022/06/21 07:42:18;;;;;;;2.40;1.33;;;32.10;30.00;;;;;;5165665;28;20435;-48
2022/06/21 07:45:04;;;;;;;3.20;1.40;;;33.10;29.90;;;;;;5164815;28;20929;-50
2022/06/21 07:48:04;;;;;;;2.63;1.33;;;33.40;29.30;;;;;;5163535;28;21099;-50
2022/06/21 07:51:04;;;;;;;3.60;1.10;;;34.20;28.80;;;;;;5153177;28;20188;-52
2022/06/21 07:53:44;;;;;;;4.17;1.47;;;34.20;28.20;;;;;;5162108;28;20231;-50
2022/06/21 07:56:48;;;;;;;3.80;1.73;;;33.20;27.80;;;;;;5159892;28;20194;-49
2022/06/21 07:59:27;;;;;;;1.57;1.47;;;32.00;29.40;;;;;;5163752;28;20203;-48
2022/06/21 08:08:48;;;;;;;1.57;0.93;;;32.30;27.90;;;;;;5153893;28;20986;-49
2022/06/21 08:11:21;;;;;;;1.47;1.37;;;31.50;28.80;;;;;;5156970;28;20467;-50
2022/06/21 08:13:52;;;;;;;3.30;1.47;;;31.40;29.60;;;;;;5160583;28;20939;-51
2022/06/21 08:16:28;;;;;;;8.90;1.77;;;30.80;29.50;;;;;;5168880;28;20466;-52
2022/06/21 08:19:12;;;;;;;6.70;1.10;;;31.50;29.10;;;;;;5161570;28;20283;-49
2022/06/21 08:22:29;;;;;;;1.03;1.03;;;31.20;28.70;;;;;;5169510;28;20446;-49
2022/06/21 08:25:19;;;;;;;3.17;1.47;;;30.90;29.80;;;;;;5162142;28;20498;-49
2022/06/21 08:27:59;;;;;;;2.10;1.53;;;29.90;30.00;;;;;;5164091;28;20850;-50
2022/06/21 08:30:29;;;;;;;1.53;1.00;;;30.50;30.50;;;;;;5164369;28;20435;-50
2022/06/21 08:33:08;;;;;;;3.13;1.53;;;31.40;29.20;;;;;;5161145;28;20551;-50
2022/06/21 08:35:44;;;;;;;3.17;1.27;;;30.50;28.20;;;;;;5159071;28;20193;-52
2022/06/21 08:38:37;;;;;;;5.43;2.00;;;30.30;29.60;;;;;;5156884;28;20507;-51
2022/06/21 08:41:51;;;;;;;2.10;1.10;;;31.10;29.70;;;;;;5169301;28;20548;-50
2022/06/21 08:44:48;;;;;;;3.17;1.53;;;31.10;29.70;;;;;;5165971;28;20464;-51
2022/06/21 08:47:19;;;;;;;2.53;1.50;;;31.50;29.40;;;;;;5172504;28;20511;-50
2022/06/21 08:50:20;;;;;;;3.30;1.37;;;32.50;28.90;;;;;;5173519;28;20820;-52
2022/06/21 08:53:08;;;;;;;1.87;1.00;;;32.00;28.40;;;;;;5181144;28;21196;-50
2022/06/21 08:55:47;;;;;;;3.50;1.10;;;29.40;31.50;;;;;;5166652;28;20427;-51
2022/06/21 08:59:03;;;;;;;5.17;2.40;;;27.40;34.50;;;;;;5164533;28;20467;-50
2022/06/21 09:01:45;;;;;;;2.30;1.10;;;25.00;37.40;;;;;;5150745;28;20812;-50
2022/06/21 09:04:30;;;;;;;3.73;1.20;;;23.20;38.80;;;;;;5160889;28;20515;-49
2022/06/21 09:07:07;;;;;;;3.17;1.70;;;22.20;41.70;;;;;;5159109;28;20496;-51
2022/06/21 09:09:44;;;;;;;3.23;1.60;;;22.10;43.10;;;;;;5150937;28;20435;-49
2022/06/21 09:12:41;;;;;;;2.27;1.20;;;21.50;43.50;;;;;;5158303;28;20443;-49
2022/06/21 09:15:33;;;;;;;2.20;1.50;;;21.20;45.10;;;;;;5167062;28;20480;-50
2022/06/21 09:18:06;;;;;;;5.37;1.57;;;21.30;45.40;;;;;;5161856;28;20515;-50
2022/06/21 09:20:42;;;;;;;1.97;1.67;;;21.40;45.50;;;;;;5166154;28;20424;-50
2022/06/21 09:23:42;;;;;;;1.33;1.10;;;21.50;45.80;;;;;;5157818;28;20727;-49
2022/06/21 09:26:32;;;;;;;5.27;1.30;;;21.40;45.00;;;;;;5161004;28;20474;-50
2022/06/21 09:29:30;;;;;;;3.57;1.20;;;21.50;45.80;;;;;;5164588;28;20626;-50
2022/06/21 09:32:25;;;;;;;2.20;1.50;;;21.60;45.40;;;;;;5161534;28;20448;-51
2022/06/21 09:35:20;;;;;;;2.37;1.03;;;21.30;44.50;;;;;;5153373;28;20480;-49
2022/06/21 09:38:11;;;;;;;7.20;1.60;;;21.20;45.50;;;;;;5160204;28;20459;-50
2022/06/21 09:41:07;;;;;;;2.97;1.67;;;21.10;45.60;;;;;;5165467;28;20451;-51
2022/06/21 09:43:48;;;;;;;2.60;1.00;;;21.10;45.90;;;;;;5167488;28;20847;-51
2022/06/21 09:46:40;;;;;;;3.10;2.63;;;21.00;46.90;;;;;;5180145;28;20467;-51
2022/06/21 09:49:42;;;;;;;1.70;1.17;;;21.20;47.00;;;;;;5160858;28;20527;-51
2022/06/21 09:52:40;;;;;;;6.67;2.33;;;21.10;46.90;;;;;;5161366;28;20435;-50
2022/06/21 09:55:44;;;;;;;1.63;1.50;;;21.00;47.10;;;;;;5159878;28;20455;-50
2022/06/21 09:58:27;;;;;;;10.67;1.13;;;21.10;47.80;;;;;;5159987;28;20468;-50
2022/06/21 10:01:01;;;;;;;4.63;1.90;;;21.30;47.20;;;;;;5166300;28;20515;-50
2022/06/21 10:03:55;;;;;;;2.27;2.10;;;21.40;47.00;;;;;;5162099;28;20493;-50
2022/06/21 10:06:37;;;;;;;11.20;1.73;;;21.50;46.00;;;;;;5161304;28;20983;-50
2022/06/21 10:09:48;;;;;;;4.43;1.63;;;21.80;46.60;;;;;;5153674;28;20435;-52
2022/06/21 10:12:25;;;;;;;3.03;1.50;;;21.90;46.20;;;;;;5151906;28;20441;-50
2022/06/21 10:15:14;;;;;;;3.53;1.87;;;22.00;45.40;;;;;;5165842;28;20424;-51
2022/06/21 10:18:05;;;;;;;1.77;1.67;;;22.10;45.00;;;;;;5160271;28;20462;-49
2022/06/21 10:20:46;;;;;;;11.60;2.23;;;22.20;45.20;;;;;;5161051;28;20417;-50
2022/06/21 10:24:08;;;;;;;6.57;1.67;;;22.20;45.10;;;;;;5161063;28;20460;-51
2022/06/21 10:27:10;;;;;;;6.83;1.70;;;22.30;45.00;;;;;;5164189;28;20543;-52
2022/06/21 10:29:43;;;;;;;2.67;1.17;;;22.30;44.10;;;;;;5165760;28;20428;-52
2022/06/21 10:32:42;;;;;;;2.23;1.33;;;21.80;44.10;;;;;;5155990;28;20507;-51
2022/06/21 10:35:28;;;;;;;11.00;1.43;;;21.60;45.10;;;;;;5159910;28;20428;-50
2022/06/21 10:38:24;;;;;;;6.57;2.03;;;21.60;44.90;;;;;;5166703;28;20514;-52
2022/06/21 10:41:03;;;;;;;0.93;0.93;;;21.70;44.60;;;;;;5165558;28;20463;-50
2022/06/21 10:43:50;;;;;;;1.73;1.40;;;21.50;44.60;;;;;;5162215;28;20947;-50
2022/06/21 10:46:38;;;;;;;2.73;1.50;;;21.50;44.80;;;;;;5170503;28;20468;-52
2022/06/21 10:49:31;;;;;;;1.50;1.37;;;21.60;45.40;;;;;;5171191;28;20994;-51
2022/06/21 10:52:23;;;;;;;1.67;1.40;;;21.70;44.70;;;;;;5161526;28;20432;-51
2022/06/21 10:55:07;;;;;;;2.50;2.30;;;21.80;44.00;;;;;;5160973;28;20808;-52
2022/06/21 10:58:05;;;;;;;2.90;1.73;;;21.90;44.00;;;;;;5159485;28;20809;-50
2022/06/21 11:03:52;;;;;;;2.93;1.60;;;21.90;42.70;;;;;;5164964;28;20420;-50
2022/06/21 11:06:44;;;;;;;2.30;1.40;;;21.90;43.40;;;;;;5161868;28;20460;-51
2022/06/21 11:09:24;;;;;;;1.40;1.00;;;21.90;43.40;;;;;;5160133;28;20431;-52
2022/06/21 11:15:12;;;;;;;2.30;1.40;;;21.90;41.60;;;;;;5164900;28;20515;-51
2022/06/21 11:17:51;;;;;;;4.93;1.30;;;22.00;42.30;;;;;;5156612;28;20531;-50
2022/06/21 11:20:53;;;;;;;2.90;1.40;;;22.10;41.90;;;;;;5168861;28;20435;-53
2022/06/21 11:23:43;;;;;;;1.40;0.97;;;22.20;42.10;;;;;;5157106;28;20447;-50
2022/06/21 11:26:22;;;;;;;3.80;1.57;;;22.40;41.10;;;;;;5161130;28;20475;-50
2022/06/21 11:29:22;;;;;;;0.90;0.90;;;22.30;40.80;;;;;;5157792;28;20463;-52
2022/06/21 11:32:15;;;;;;;4.23;1.23;;;22.40;42.00;;;;;;5165366;28;20431;-52
2022/06/21 11:35:09;;;;;;;1.87;1.73;;;22.60;41.20;;;;;;5162688;28;20431;-50
2022/06/21 11:38:03;;;;;;;2.23;1.47;;;22.70;40.90;;;;;;5157179;28;20494;-52
2022/06/21 11:40:49;;;;;;;5.47;1.10;;;22.70;39.40;;;;;;5159125;28;20458;-50
2022/06/21 11:43:49;;;;;;;3.00;0.90;;;22.70;39.60;;;;;;5160592;28;20443;-51
2022/06/21 11:46:35;;;;;;;1.13;1.13;;;22.70;38.90;;;;;;5169460;28;20874;-49
2022/06/21 11:49:23;;;;;;;2.00;1.23;;;22.60;38.80;;;;;;5167353;28;20439;-51
2022/06/21 11:52:21;;;;;;;2.40;1.20;;;22.60;39.40;;;;;;5178336;28;20448;-51
2022/06/21 11:55:16;;;;;;;1.33;1.23;;;22.60;39.70;;;;;;5171638;28;20546;-53
2022/06/21 11:58:24;;;;;;;4.20;2.23;;;22.60;39.00;;;;;;5163450;28;20503;-52
2022/06/21 12:01:11;;;;;;;1.30;0.90;;;22.70;38.80;;;;;;5146807;28;20440;-51
2022/06/21 12:03:47;;;;;;;1.30;1.20;;;22.80;38.40;;;;;;5145186;28;20436;-51
2022/06/21 12:06:29;;;;;;;1.90;1.40;;;22.90;37.90;;;;;;5161090;28;20551;-51
2022/06/21 12:09:15;;;;;;;4.00;1.37;;;22.90;38.50;;;;;;5156737;28;20999;-52
2022/06/21 12:11:54;;;;;;;4.73;1.73;;;22.90;38.90;;;;;;5165784;28;20432;-52
2022/06/21 12:14:42;;;;;;;1.53;1.30;;;23.00;39.50;;;;;;5167490;28;20447;-51
2022/06/21 12:17:58;;;;;;;4.00;1.10;;;23.10;38.70;;;;;;5171620;28;20467;-51
2022/06/21 12:21:00;;;;;;;6.20;1.87;;;23.10;38.60;;;;;;5156909;28;20455;-50
2022/06/21 12:23:44;;;;;;;2.40;1.70;;;23.20;38.50;;;;;;5155459;28;20439;-50
2022/06/21 12:26:19;;;;;;;1.40;1.30;;;23.30;38.90;;;;;;5167106;28;20851;-52
2022/06/21 12:28:51;;;;;;;1.20;1.20;;;23.40;38.80;;;;;;5164484;28;20467;-51
2022/06/21 12:31:27;;;;;;;2.40;1.53;;;23.50;39.20;;;;;;5167605;28;20581;-52
2022/06/21 12:34:33;;;;;;;3.90;1.07;;;23.60;38.50;;;;;;5165133;28;20530;-51
2022/06/21 12:37:23;;;;;;;2.80;1.27;;;23.40;38.10;;;;;;5160305;28;20455;-50
2022/06/21 12:40:31;;;;;;;3.43;1.20;;;23.30;37.60;;;;;;5167285;28;20497;-51
2022/06/21 12:43:11;;;;;;;1.90;0.90;;;23.10;37.80;;;;;;5162597;28;21000;-50
2022/06/21 12:45:48;;;;;;;2.30;1.37;;;23.10;38.10;;;;;;5165146;28;20460;-51
2022/06/21 12:48:28;;;;;;;2.80;1.10;;;23.20;38.70;;;;;;5163735;28;21006;-52
2022/06/21 12:51:15;;;;;;;3.63;1.20;;;23.30;38.50;;;;;;5177801;28;20451;-49
2022/06/21 12:54:09;;;;;;;2.83;1.20;;;23.20;38.00;;;;;;5162162;28;20439;-51
2022/06/21 12:56:59;;;;;;;2.40;1.10;;;23.30;38.60;;;;;;5175514;28;20440;-53
2022/06/21 12:59:49;;;;;;;1.57;1.03;;;23.40;38.10;;;;;;5161312;28;20452;-50
2022/06/21 13:02:56;;;;;;;8.33;1.20;;;23.40;37.40;;;;;;5161765;28;20870;-52
2022/06/21 13:05:37;;;;;;;1.47;0.80;;;23.40;37.80;;;;;;5164557;28;20533;-52
2022/06/21 13:08:13;;;;;;;2.30;1.20;;;23.40;37.70;;;;;;5165760;28;20495;-50
2022/06/21 13:11:01;;;;;;;0.97;0.90;;;23.50;37.70;;;;;;5163347;28;20465;-52
2022/06/21 13:13:32;;;;;;;2.03;1.30;;;23.70;37.20;;;;;;5169005;28;20459;-51
2022/06/21 13:16:07;;;;;;;8.33;3.10;;;23.70;37.40;;;;;;5162463;28;20519;-51
2022/06/21 13:19:12;;;;;;;3.23;1.40;;;23.80;37.60;;;;;;5156923;28;20661;-50
2022/06/21 13:22:21;;;;;;;1.33;1.23;;;23.80;36.60;;;;;;5159780;28;20432;-50
2022/06/21 13:25:17;;;;;;;0.87;0.87;;;23.80;36.10;;;;;;5160011;28;20483;-51
2022/06/21 13:27:59;;;;;;;1.00;0.90;;;24.00;36.20;;;;;;5161227;28;20996;-51
2022/06/21 13:30:54;;;;;;;2.10;0.77;;;24.10;35.90;;;;;;5159849;28;20929;-50
2022/06/21 13:33:39;;;;;;;3.53;1.17;;;24.10;36.20;;;;;;5156155;28;20437;-50
2022/06/21 13:36:25;;;;;;;11.30;1.73;;;24.00;36.60;;;;;;5163691;28;20925;-49
2022/06/21 13:39:07;;;;;;;2.03;0.87;;;23.80;36.00;;;;;;5161080;28;20463;-50
2022/06/21 13:45:35;;;;;;;0.90;0.90;;;23.70;35.30;;;;;;5165071;28;20454;-51
2022/06/21 13:48:24;;;;;;;5.20;1.30;;;24.00;35.60;;;;;;5150917;28;20506;-51
2022/06/21 13:51:12;;;;;;;1.63;1.10;;;24.00;35.90;;;;;;5163785;28;20435;-51
2022/06/21 13:53:58;;;;;;;3.50;1.00;;;24.10;35.70;;;;;;5164194;28;20462;-49
2022/06/21 13:56:45;;;;;;;1.63;0.70;;;24.30;36.70;;;;;;5164116;28;20440;-50
2022/06/21 13:59:31;;;;;;;2.43;0.70;;;24.40;36.70;;;;;;5164984;28;20479;-50
2022/06/21 14:02:40;;;;;;;1.60;1.10;;;24.40;36.90;;;;;;5175411;28;20496;-52
2022/06/21 14:05:32;;;;;;;2.33;0.80;;;24.30;36.30;;;;;;5153266;28;20439;-51
2022/06/21 14:08:31;;;;;;;1.40;1.10;;;24.30;36.50;;;;;;5162483;28;20476;-51
2022/06/21 14:11:26;;;;;;;2.77;1.10;;;24.30;36.20;;;;;;5161207;28;20947;-52
2022/06/21 14:14:10;;;;;;;5.00;0.90;;;24.10;36.70;;;;;;5165569;28;20444;-50
2022/06/21 14:16:45;;;;;;;2.00;1.40;;;24.20;36.20;;;;;;5161148;28;20451;-51
2022/06/21 14:19:40;;;;;;;1.97;1.13;;;24.30;36.60;;;;;;5157314;28;20512;-51
2022/06/21 14:22:19;;;;;;;0.70;0.70;;;24.50;36.30;;;;;;5155094;28;20449;-50
2022/06/21 14:24:58;;;;;;;2.30;1.30;;;24.60;35.20;;;;;;5158255;28;20436;-51
2022/06/21 14:27:38;;;;;;;5.53;1.33;;;24.60;35.10;;;;;;5154174;28;20516;-50
2022/06/21 14:30:22;;;;;;;1.60;1.50;;;24.50;35.60;;;;;;5164627;28;20451;-51
2022/06/21 14:33:04;;;;;;;0.80;0.80;;;24.60;35.50;;;;;;5162152;28;20523;-52
2022/06/21 14:35:45;;;;;;;0.80;0.80;;;24.40;35.80;;;;;;5165600;28;20535;-50